sensor_id;sensor_type;location;lat;lon;timestamp;P1;P2;P0
74333;PMS5003;62753;40.394;-80.022;2024-03-08T00:00:21;23;20;
74333;PMS5003;62753;40.394;-80.022;2024-03-08T00:02:46;19;17;
74333;PMS5003;62753;40.394;-80.022;2024-03-08T00:05:11;19;17;
74333;PMS5003;62753;40.394;-80.022;2024-03-08T00:07:38;17;16;
74333;PMS5003;62753;40.394;-80.022;2024-03-08T00:10:02;20;18;
74333;PMS5003;62753;40.394;-80.022;2024-03-08T00:12:27;20;19;
74333;PMS5003;62753;40.394;-80.022;2024-03-08T00:14:52;16;15;
74333;PMS5003;62753;40.394;-80.022;2024-03-08T00:17:18;16;15;
74333;PMS5003;62753;40.394;-80.022;2024-03-08T00:19:44;17;17;
74333;PMS5003;62753;40.394;-80.022;2024-03-08T00:22:08;15;14;
74333;PMS5003;62753;40.394;-80.022;2024-03-08T00:24:34;18;16;
74333;PMS5003;62753;40.394;-80.022;2024-03-08T00:26:59;16;15;
74333;PMS5003;62753;40.394;-80.022;2024-03-08T00:29:24;18;16;
74333;PMS5003;62753;40.394;-80.022;2024-03-08T00:31:49;15;14;
74333;PMS5003;62753;40.394;-80.022;2024-03-08T00:34:14;15;14;
74333;PMS5003;62753;40.394;-80.022;2024-03-08T00:36:40;14;14;
74333;PMS5003;62753;40.394;-80.022;2024-03-08T00:39:06;17;14;
74333;PMS5003;62753;40.394;-80.022;2024-03-08T00:41:30;17;16;
74333;PMS5003;62753;40.394;-80.022;2024-03-08T00:43:57;15;14;
74333;PMS5003;62753;40.394;-80.022;2024-03-08T00:46:20;17;16;
74333;PMS5003;62753;40.394;-80.022;2024-03-08T00:48:46;21;20;
74333;PMS5003;62753;40.394;-80.022;2024-03-08T00:51:11;14;14;
74333;PMS5003;62753;40.394;-80.022;2024-03-08T00:53:36;18;17;
74333;PMS5003;62753;40.394;-80.022;2024-03-08T00:56:01;20;17;
74333;PMS5003;62753;40.394;-80.022;2024-03-08T00:58:26;16;15;
74333;PMS5003;62753;40.394;-80.022;2024-03-08T01:00:53;19;17;
74333;PMS5003;62753;40.394;-80.022;2024-03-08T01:03:19;22;17;
74333;PMS5003;62753;40.394;-80.022;2024-03-08T01:05:43;17;16;
74333;PMS5003;62753;40.394;-80.022;2024-03-08T01:08:08;17;15;
74333;PMS5003;62753;40.394;-80.022;2024-03-08T01:10:35;15;14;
74333;PMS5003;62753;40.394;-80.022;2024-03-08T01:12:59;16;16;
74333;PMS5003;62753;40.394;-80.022;2024-03-08T01:15:24;19;18;
74333;PMS5003;62753;40.394;-80.022;2024-03-08T01:17:50;23;19;
74333;PMS5003;62753;40.394;-80.022;2024-03-08T01:20:16;18;17;
74333;PMS5003;62753;40.394;-80.022;2024-03-08T01:22:41;16;16;
74333;PMS5003;62753;40.394;-80.022;2024-03-08T01:25:07;21;18;
74333;PMS5003;62753;40.394;-80.022;2024-03-08T01:27:32;19;18;
74333;PMS5003;62753;40.394;-80.022;2024-03-08T01:29:58;20;19;
74333;PMS5003;62753;40.394;-80.022;2024-03-08T01:32:23;18;16;
74333;PMS5003;62753;40.394;-80.022;2024-03-08T01:34:50;19;17;
74333;PMS5003;62753;40.394;-80.022;2024-03-08T01:37:14;23;18;
74333;PMS5003;62753;40.394;-80.022;2024-03-08T01:39:39;19;17;
74333;PMS5003;62753;40.394;-80.022;2024-03-08T01:42:05;23;18;
74333;PMS5003;62753;40.394;-80.022;2024-03-08T01:44:30;18;17;
74333;PMS5003;62753;40.394;-80.022;2024-03-08T01:46:56;20;19;
74333;PMS5003;62753;40.394;-80.022;2024-03-08T01:49:21;20;17;
74333;PMS5003;62753;40.394;-80.022;2024-03-08T01:51:47;21;18;
74333;PMS5003;62753;40.394;-80.022;2024-03-08T01:54:14;21;19;
74333;PMS5003;62753;40.394;-80.022;2024-03-08T01:56:40;17;17;
74333;PMS5003;62753;40.394;-80.022;2024-03-08T01:59:03;18;17;
74333;PMS5003;62753;40.394;-80.022;2024-03-08T02:01:28;18;18;
74333;PMS5003;62753;40.394;-80.022;2024-03-08T02:03:54;19;17;
74333;PMS5003;62753;40.394;-80.022;2024-03-08T02:06:20;19;18;
74333;PMS5003;62753;40.394;-80.022;2024-03-08T02:08:45;18;18;
74333;PMS5003;62753;40.394;-80.022;2024-03-08T02:11:10;19;17;
74333;PMS5003;62753;40.394;-80.022;2024-03-08T02:13:35;17;17;
74333;PMS5003;62753;40.394;-80.022;2024-03-08T02:16:01;27;20;
74333;PMS5003;62753;40.394;-80.022;2024-03-08T02:18:26;20;17;
74333;PMS5003;62753;40.394;-80.022;2024-03-08T02:20:51;18;17;
74333;PMS5003;62753;40.394;-80.022;2024-03-08T02:23:16;20;19;
74333;PMS5003;62753;40.394;-80.022;2024-03-08T02:25:41;22;20;
74333;PMS5003;62753;40.394;-80.022;2024-03-08T02:28:07;19;17;
74333;PMS5003;62753;40.394;-80.022;2024-03-08T02:30:32;23;20;
74333;PMS5003;62753;40.394;-80.022;2024-03-08T02:32:58;18;17;
74333;PMS5003;62753;40.394;-80.022;2024-03-08T02:35:25;26;22;
74333;PMS5003;62753;40.394;-80.022;2024-03-08T02:37:48;22;22;
74333;PMS5003;62753;40.394;-80.022;2024-03-08T02:40:14;18;18;
74333;PMS5003;62753;40.394;-80.022;2024-03-08T02:42:40;22;21;
74333;PMS5003;62753;40.394;-80.022;2024-03-08T02:45:06;24;21;
74333;PMS5003;62753;40.394;-80.022;2024-03-08T02:47:30;23;21;
74333;PMS5003;62753;40.394;-80.022;2024-03-08T02:49:55;19;18;
74333;PMS5003;62753;40.394;-80.022;2024-03-08T02:52:21;21;20;
74333;PMS5003;62753;40.394;-80.022;2024-03-08T02:54:47;25;19;
74333;PMS5003;62753;40.394;-80.022;2024-03-08T02:57:12;21;19;
74333;PMS5003;62753;40.394;-80.022;2024-03-08T02:59:37;23;19;
74333;PMS5003;62753;40.394;-80.022;2024-03-08T03:02:03;20;17;
74333;PMS5003;62753;40.394;-80.022;2024-03-08T03:04:28;20;19;
74333;PMS5003;62753;40.394;-80.022;2024-03-08T03:06:54;21;19;
74333;PMS5003;62753;40.394;-80.022;2024-03-08T03:09:19;22;20;
74333;PMS5003;62753;40.394;-80.022;2024-03-08T03:11:44;19;18;
74333;PMS5003;62753;40.394;-80.022;2024-03-08T03:14:11;22;18;
74333;PMS5003;62753;40.394;-80.022;2024-03-08T03:16:36;20;18;
74333;PMS5003;62753;40.394;-80.022;2024-03-08T03:19:01;20;20;
74333;PMS5003;62753;40.394;-80.022;2024-03-08T03:21:28;25;22;
74333;PMS5003;62753;40.394;-80.022;2024-03-08T03:23:52;20;20;
74333;PMS5003;62753;40.394;-80.022;2024-03-08T03:26:17;18;18;
74333;PMS5003;62753;40.394;-80.022;2024-03-08T03:28:43;30;23;
74333;PMS5003;62753;40.394;-80.022;2024-03-08T03:31:08;18;18;
74333;PMS5003;62753;40.394;-80.022;2024-03-08T03:33:33;22;19;
74333;PMS5003;62753;40.394;-80.022;2024-03-08T03:35:58;18;17;
74333;PMS5003;62753;40.394;-80.022;2024-03-08T03:38:24;25;22;
74333;PMS5003;62753;40.394;-80.022;2024-03-08T03:40:49;24;21;
74333;PMS5003;62753;40.394;-80.022;2024-03-08T03:43:15;24;21;
74333;PMS5003;62753;40.394;-80.022;2024-03-08T03:45:40;30;23;
74333;PMS5003;62753;40.394;-80.022;2024-03-08T03:48:06;22;21;
74333;PMS5003;62753;40.394;-80.022;2024-03-08T03:50:33;26;22;
74333;PMS5003;62753;40.394;-80.022;2024-03-08T03:52:56;23;21;
74333;PMS5003;62753;40.394;-80.022;2024-03-08T03:55:22;23;21;
74333;PMS5003;62753;40.394;-80.022;2024-03-08T03:57:47;23;22;
74333;PMS5003;62753;40.394;-80.022;2024-03-08T04:00:13;24;21;
74333;PMS5003;62753;40.394;-80.022;2024-03-08T04:02:39;20;18;
74333;PMS5003;62753;40.394;-80.022;2024-03-08T04:05:05;31;25;
74333;PMS5003;62753;40.394;-80.022;2024-03-08T04:07:30;24;22;
74333;PMS5003;62753;40.394;-80.022;2024-03-08T04:09:56;26;23;
74333;PMS5003;62753;40.394;-80.022;2024-03-08T04:12:21;22;20;
74333;PMS5003;62753;40.394;-80.022;2024-03-08T04:14:46;23;22;
74333;PMS5003;62753;40.394;-80.022;2024-03-08T04:17:12;25;21;
74333;PMS5003;62753;40.394;-80.022;2024-03-08T04:19:39;24;23;
74333;PMS5003;62753;40.394;-80.022;2024-03-08T04:22:03;24;23;
74333;PMS5003;62753;40.394;-80.022;2024-03-08T04:24:28;26;20;
74333;PMS5003;62753;40.394;-80.022;2024-03-08T04:26:54;31;24;
74333;PMS5003;62753;40.394;-80.022;2024-03-08T04:29:19;28;23;
74333;PMS5003;62753;40.394;-80.022;2024-03-08T04:31:44;23;20;
74333;PMS5003;62753;40.394;-80.022;2024-03-08T04:34:10;24;22;
74333;PMS5003;62753;40.394;-80.022;2024-03-08T04:36:36;26;23;
74333;PMS5003;62753;40.394;-80.022;2024-03-08T04:39:02;25;22;
74333;PMS5003;62753;40.394;-80.022;2024-03-08T04:41:26;30;25;
74333;PMS5003;62753;40.394;-80.022;2024-03-08T04:43:52;26;25;
74333;PMS5003;62753;40.394;-80.022;2024-03-08T04:46:18;25;23;
74333;PMS5003;62753;40.394;-80.022;2024-03-08T04:48:43;26;24;
74333;PMS5003;62753;40.394;-80.022;2024-03-08T04:51:08;28;22;
74333;PMS5003;62753;40.394;-80.022;2024-03-08T04:53:35;27;26;
74333;PMS5003;62753;40.394;-80.022;2024-03-08T04:55:59;21;21;
74333;PMS5003;62753;40.394;-80.022;2024-03-08T04:58:25;23;23;
74333;PMS5003;62753;40.394;-80.022;2024-03-08T05:00:50;20;20;
74333;PMS5003;62753;40.394;-80.022;2024-03-08T05:03:17;28;23;
74333;PMS5003;62753;40.394;-80.022;2024-03-08T05:05:41;29;21;
74333;PMS5003;62753;40.394;-80.022;2024-03-08T05:08:08;28;24;
74333;PMS5003;62753;40.394;-80.022;2024-03-08T05:10:32;29;24;
74333;PMS5003;62753;40.394;-80.022;2024-03-08T05:12:58;26;25;
74333;PMS5003;62753;40.394;-80.022;2024-03-08T05:15:24;25;22;
74333;PMS5003;62753;40.394;-80.022;2024-03-08T05:17:49;27;26;
74333;PMS5003;62753;40.394;-80.022;2024-03-08T05:20:14;29;24;
74333;PMS5003;62753;40.394;-80.022;2024-03-08T05:22:40;24;20;
74333;PMS5003;62753;40.394;-80.022;2024-03-08T05:25:06;22;22;
74333;PMS5003;62753;40.394;-80.022;2024-03-08T05:27:31;24;22;
74333;PMS5003;62753;40.394;-80.022;2024-03-08T05:29:56;27;23;
74333;PMS5003;62753;40.394;-80.022;2024-03-08T05:32:21;24;23;
74333;PMS5003;62753;40.394;-80.022;2024-03-08T05:34:47;26;24;
74333;PMS5003;62753;40.394;-80.022;2024-03-08T05:37:12;25;24;
74333;PMS5003;62753;40.394;-80.022;2024-03-08T05:39:37;30;28;
74333;PMS5003;62753;40.394;-80.022;2024-03-08T05:42:03;29;25;
74333;PMS5003;62753;40.394;-80.022;2024-03-08T05:44:28;28;24;
74333;PMS5003;62753;40.394;-80.022;2024-03-08T05:46:54;27;23;
74333;PMS5003;62753;40.394;-80.022;2024-03-08T05:49:19;29;25;
74333;PMS5003;62753;40.394;-80.022;2024-03-08T05:51:44;33;28;
74333;PMS5003;62753;40.394;-80.022;2024-03-08T05:54:10;29;24;
74333;PMS5003;62753;40.394;-80.022;2024-03-08T05:56:35;31;28;
74333;PMS5003;62753;40.394;-80.022;2024-03-08T05:59:00;26;22;
74333;PMS5003;62753;40.394;-80.022;2024-03-08T06:01:25;22;21;
74333;PMS5003;62753;40.394;-80.022;2024-03-08T06:03:50;36;33;
74333;PMS5003;62753;40.394;-80.022;2024-03-08T06:06:15;32;28;
74333;PMS5003;62753;40.394;-80.022;2024-03-08T06:08:42;32;28;
74333;PMS5003;62753;40.394;-80.022;2024-03-08T06:11:07;42;33;
74333;PMS5003;62753;40.394;-80.022;2024-03-08T06:13:33;36;32;
74333;PMS5003;62753;40.394;-80.022;2024-03-08T06:15:58;31;31;
74333;PMS5003;62753;40.394;-80.022;2024-03-08T06:18:24;31;29;
74333;PMS5003;62753;40.394;-80.022;2024-03-08T06:20:50;29;27;
74333;PMS5003;62753;40.394;-80.022;2024-03-08T06:23:15;36;31;
74333;PMS5003;62753;40.394;-80.022;2024-03-08T06:25:41;37;33;
74333;PMS5003;62753;40.394;-80.022;2024-03-08T06:28:06;38;34;
74333;PMS5003;62753;40.394;-80.022;2024-03-08T06:30:32;42;37;
74333;PMS5003;62753;40.394;-80.022;2024-03-08T06:32:57;44;38;
74333;PMS5003;62753;40.394;-80.022;2024-03-08T06:35:23;44;35;
74333;PMS5003;62753;40.394;-80.022;2024-03-08T06:37:48;47;41;
74333;PMS5003;62753;40.394;-80.022;2024-03-08T06:40:14;36;30;
74333;PMS5003;62753;40.394;-80.022;2024-03-08T06:42:39;35;33;
74333;PMS5003;62753;40.394;-80.022;2024-03-08T06:45:05;36;30;
74333;PMS5003;62753;40.394;-80.022;2024-03-08T06:47:30;33;30;
74333;PMS5003;62753;40.394;-80.022;2024-03-08T06:49:55;36;30;
74333;PMS5003;62753;40.394;-80.022;2024-03-08T06:52:21;36;32;
74333;PMS5003;62753;40.394;-80.022;2024-03-08T06:54:46;31;27;
74333;PMS5003;62753;40.394;-80.022;2024-03-08T06:57:12;42;35;
74333;PMS5003;62753;40.394;-80.022;2024-03-08T06:59:37;35;28;
74333;PMS5003;62753;40.394;-80.022;2024-03-08T07:02:03;28;26;
74333;PMS5003;62753;40.394;-80.022;2024-03-08T07:04:28;31;27;
74333;PMS5003;62753;40.394;-80.022;2024-03-08T07:06:54;37;31;
74333;PMS5003;62753;40.394;-80.022;2024-03-08T07:09:19;31;29;
74333;PMS5003;62753;40.394;-80.022;2024-03-08T07:11:45;35;31;
74333;PMS5003;62753;40.394;-80.022;2024-03-08T07:14:10;35;32;
74333;PMS5003;62753;40.394;-80.022;2024-03-08T07:16:36;34;31;
74333;PMS5003;62753;40.394;-80.022;2024-03-08T07:19:02;43;35;
74333;PMS5003;62753;40.394;-80.022;2024-03-08T07:21:27;34;33;
74333;PMS5003;62753;40.394;-80.022;2024-03-08T07:23:54;42;36;
74333;PMS5003;62753;40.394;-80.022;2024-03-08T07:26:20;34;29;
74333;PMS5003;62753;40.394;-80.022;2024-03-08T07:28:43;32;32;
74333;PMS5003;62753;40.394;-80.022;2024-03-08T07:31:09;38;31;
74333;PMS5003;62753;40.394;-80.022;2024-03-08T07:33:35;40;33;
74333;PMS5003;62753;40.394;-80.022;2024-03-08T07:36:02;38;31;
74333;PMS5003;62753;40.394;-80.022;2024-03-08T07:38:27;35;33;
74333;PMS5003;62753;40.394;-80.022;2024-03-08T07:40:52;37;36;
74333;PMS5003;62753;40.394;-80.022;2024-03-08T07:43:18;36;32;
74333;PMS5003;62753;40.394;-80.022;2024-03-08T07:45:44;34;31;
74333;PMS5003;62753;40.394;-80.022;2024-03-08T07:48:09;31;29;
74333;PMS5003;62753;40.394;-80.022;2024-03-08T07:50:36;29;26;
74333;PMS5003;62753;40.394;-80.022;2024-03-08T07:53:01;36;31;
74333;PMS5003;62753;40.394;-80.022;2024-03-08T07:55:26;33;28;
74333;PMS5003;62753;40.394;-80.022;2024-03-08T07:57:51;34;28;
74333;PMS5003;62753;40.394;-80.022;2024-03-08T08:00:17;35;30;
74333;PMS5003;62753;40.394;-80.022;2024-03-08T08:02:42;26;26;
74333;PMS5003;62753;40.394;-80.022;2024-03-08T08:05:08;32;30;
74333;PMS5003;62753;40.394;-80.022;2024-03-08T08:07:33;38;32;
74333;PMS5003;62753;40.394;-80.022;2024-03-08T08:09:59;26;24;
74333;PMS5003;62753;40.394;-80.022;2024-03-08T08:12:24;30;24;
74333;PMS5003;62753;40.394;-80.022;2024-03-08T08:14:49;38;30;
74333;PMS5003;62753;40.394;-80.022;2024-03-08T08:17:14;28;23;
74333;PMS5003;62753;40.394;-80.022;2024-03-08T08:19:40;28;24;
74333;PMS5003;62753;40.394;-80.022;2024-03-08T08:22:05;32;24;
74333;PMS5003;62753;40.394;-80.022;2024-03-08T08:24:31;37;26;
74333;PMS5003;62753;40.394;-80.022;2024-03-08T08:26:56;26;24;
74333;PMS5003;62753;40.394;-80.022;2024-03-08T08:29:22;28;26;
74333;PMS5003;62753;40.394;-80.022;2024-03-08T08:31:47;25;23;
74333;PMS5003;62753;40.394;-80.022;2024-03-08T08:34:13;32;26;
74333;PMS5003;62753;40.394;-80.022;2024-03-08T08:36:38;28;23;
74333;PMS5003;62753;40.394;-80.022;2024-03-08T08:39:04;28;25;
74333;PMS5003;62753;40.394;-80.022;2024-03-08T08:41:29;32;25;
74333;PMS5003;62753;40.394;-80.022;2024-03-08T08:43:54;27;26;
74333;PMS5003;62753;40.394;-80.022;2024-03-08T08:46:20;28;27;
74333;PMS5003;62753;40.394;-80.022;2024-03-08T08:48:46;30;24;
74333;PMS5003;62753;40.394;-80.022;2024-03-08T08:51:11;27;23;
74333;PMS5003;62753;40.394;-80.022;2024-03-08T08:53:38;29;26;
74333;PMS5003;62753;40.394;-80.022;2024-03-08T08:56:03;23;20;
74333;PMS5003;62753;40.394;-80.022;2024-03-08T08:58:28;20;18;
74333;PMS5003;62753;40.394;-80.022;2024-03-08T09:00:53;19;17;
74333;PMS5003;62753;40.394;-80.022;2024-03-08T09:03:19;20;18;
74333;PMS5003;62753;40.394;-80.022;2024-03-08T09:05:45;25;19;
74333;PMS5003;62753;40.394;-80.022;2024-03-08T09:08:10;20;19;
74333;PMS5003;62753;40.394;-80.022;2024-03-08T09:10:35;17;15;
74333;PMS5003;62753;40.394;-80.022;2024-03-08T09:13:01;19;18;
74333;PMS5003;62753;40.394;-80.022;2024-03-08T09:15:26;18;17;
74333;PMS5003;62753;40.394;-80.022;2024-03-08T09:17:52;18;17;
74333;PMS5003;62753;40.394;-80.022;2024-03-08T09:20:17;18;16;
74333;PMS5003;62753;40.394;-80.022;2024-03-08T09:22:44;17;16;
74333;PMS5003;62753;40.394;-80.022;2024-03-08T09:25:08;16;15;
74333;PMS5003;62753;40.394;-80.022;2024-03-08T09:27:33;19;16;
74333;PMS5003;62753;40.394;-80.022;2024-03-08T09:29:58;26;21;
74333;PMS5003;62753;40.394;-80.022;2024-03-08T09:32:24;20;17;
74333;PMS5003;62753;40.394;-80.022;2024-03-08T09:34:49;19;18;
74333;PMS5003;62753;40.394;-80.022;2024-03-08T09:37:15;19;16;
74333;PMS5003;62753;40.394;-80.022;2024-03-08T09:39:40;17;16;
74333;PMS5003;62753;40.394;-80.022;2024-03-08T09:42:06;18;14;
74333;PMS5003;62753;40.394;-80.022;2024-03-08T09:44:31;18;17;
74333;PMS5003;62753;40.394;-80.022;2024-03-08T09:46:57;22;18;
74333;PMS5003;62753;40.394;-80.022;2024-03-08T09:49:22;17;15;
74333;PMS5003;62753;40.394;-80.022;2024-03-08T09:51:48;19;15;
74333;PMS5003;62753;40.394;-80.022;2024-03-08T09:54:13;16;11;
74333;PMS5003;62753;40.394;-80.022;2024-03-08T09:56:39;16;15;
74333;PMS5003;62753;40.394;-80.022;2024-03-08T09:59:04;17;15;
74333;PMS5003;62753;40.394;-80.022;2024-03-08T10:01:29;18;17;
74333;PMS5003;62753;40.394;-80.022;2024-03-08T10:03:54;16;16;
74333;PMS5003;62753;40.394;-80.022;2024-03-08T10:06:22;18;15;
74333;PMS5003;62753;40.394;-80.022;2024-03-08T10:08:45;19;18;
74333;PMS5003;62753;40.394;-80.022;2024-03-08T10:11:10;27;21;
74333;PMS5003;62753;40.394;-80.022;2024-03-08T10:13:35;18;18;
74333;PMS5003;62753;40.394;-80.022;2024-03-08T10:16:00;23;21;
74333;PMS5003;62753;40.394;-80.022;2024-03-08T10:18:26;17;16;
74333;PMS5003;62753;40.394;-80.022;2024-03-08T10:23:18;26;21;
74333;PMS5003;62753;40.394;-80.022;2024-03-08T10:25:41;17;17;
74333;PMS5003;62753;40.394;-80.022;2024-03-08T10:28:07;21;20;
74333;PMS5003;62753;40.394;-80.022;2024-03-08T10:30:32;19;17;
74333;PMS5003;62753;40.394;-80.022;2024-03-08T10:32:58;19;17;
74333;PMS5003;62753;40.394;-80.022;2024-03-08T10:35:23;16;16;
74333;PMS5003;62753;40.394;-80.022;2024-03-08T10:37:49;16;16;
74333;PMS5003;62753;40.394;-80.022;2024-03-08T10:40:16;17;17;
74333;PMS5003;62753;40.394;-80.022;2024-03-08T10:42:44;21;17;
74333;PMS5003;62753;40.394;-80.022;2024-03-08T10:45:05;15;15;
74333;PMS5003;62753;40.394;-80.022;2024-03-08T10:47:30;18;17;
74333;PMS5003;62753;40.394;-80.022;2024-03-08T10:49:59;18;14;
74333;PMS5003;62753;40.394;-80.022;2024-03-08T10:52:21;18;17;
74333;PMS5003;62753;40.394;-80.022;2024-03-08T10:54:47;18;16;
74333;PMS5003;62753;40.394;-80.022;2024-03-08T10:57:12;22;17;
74333;PMS5003;62753;40.394;-80.022;2024-03-08T10:59:37;22;19;
74333;PMS5003;62753;40.394;-80.022;2024-03-08T11:02:03;16;15;
74333;PMS5003;62753;40.394;-80.022;2024-03-08T11:04:28;22;20;
74333;PMS5003;62753;40.394;-80.022;2024-03-08T11:06:53;19;16;
74333;PMS5003;62753;40.394;-80.022;2024-03-08T11:11:44;18;14;
74333;PMS5003;62753;40.394;-80.022;2024-03-08T11:16:37;13;13;
74333;PMS5003;62753;40.394;-80.022;2024-03-08T11:19:01;14;14;
74333;PMS5003;62753;40.394;-80.022;2024-03-08T11:21:26;14;13;
74333;PMS5003;62753;40.394;-80.022;2024-03-08T11:26:17;14;14;
74333;PMS5003;62753;40.394;-80.022;2024-03-08T11:28:42;14;14;
74333;PMS5003;62753;40.394;-80.022;2024-03-08T11:33:35;10;9;
74333;PMS5003;62753;40.394;-80.022;2024-03-08T11:36:02;14;13;
74333;PMS5003;62753;40.394;-80.022;2024-03-08T11:38:24;13;12;
74333;PMS5003;62753;40.394;-80.022;2024-03-08T11:40:50;12;11;
74333;PMS5003;62753;40.394;-80.022;2024-03-08T11:43:15;16;15;
74333;PMS5003;62753;40.394;-80.022;2024-03-08T11:45:40;13;12;
74333;PMS5003;62753;40.394;-80.022;2024-03-08T11:48:05;15;13;
74333;PMS5003;62753;40.394;-80.022;2024-03-08T11:50:30;15;14;
74333;PMS5003;62753;40.394;-80.022;2024-03-08T11:53:00;15;13;
74333;PMS5003;62753;40.394;-80.022;2024-03-08T11:55:21;11;10;
74333;PMS5003;62753;40.394;-80.022;2024-03-08T11:57:47;9;9;
74333;PMS5003;62753;40.394;-80.022;2024-03-08T12:00:15;14;13;
74333;PMS5003;62753;40.394;-80.022;2024-03-08T12:02:37;10;9;
74333;PMS5003;62753;40.394;-80.022;2024-03-08T12:05:03;11;11;
74333;PMS5003;62753;40.394;-80.022;2024-03-08T12:07:29;15;12;
74333;PMS5003;62753;40.394;-80.022;2024-03-08T12:12:19;13;12;
74333;PMS5003;62753;40.394;-80.022;2024-03-08T12:14:44;9;9;
74333;PMS5003;62753;40.394;-80.022;2024-03-08T12:17:09;9;9;
74333;PMS5003;62753;40.394;-80.022;2024-03-08T12:19:35;9;9;
74333;PMS5003;62753;40.394;-80.022;2024-03-08T12:24:26;12;10;
74333;PMS5003;62753;40.394;-80.022;2024-03-08T12:26:51;11;11;
74333;PMS5003;62753;40.394;-80.022;2024-03-08T12:29:17;11;11;
74333;PMS5003;62753;40.394;-80.022;2024-03-08T12:31:42;16;11;
74333;PMS5003;62753;40.394;-80.022;2024-03-08T12:34:07;12;11;
74333;PMS5003;62753;40.394;-80.022;2024-03-08T12:36:32;10;10;
74333;PMS5003;62753;40.394;-80.022;2024-03-08T12:38:59;8;8;
74333;PMS5003;62753;40.394;-80.022;2024-03-08T12:41:24;14;11;
74333;PMS5003;62753;40.394;-80.022;2024-03-08T12:43:48;9;8;
74333;PMS5003;62753;40.394;-80.022;2024-03-08T12:46:15;9;8;
74333;PMS5003;62753;40.394;-80.022;2024-03-08T12:48:39;7;7;
74333;PMS5003;62753;40.394;-80.022;2024-03-08T12:51:04;11;8;
74333;PMS5003;62753;40.394;-80.022;2024-03-08T12:53:30;8;7;
74333;PMS5003;62753;40.394;-80.022;2024-03-08T12:55:55;7;7;
74333;PMS5003;62753;40.394;-80.022;2024-03-08T12:58:20;6;6;
74333;PMS5003;62753;40.394;-80.022;2024-03-08T13:00:46;9;9;
74333;PMS5003;62753;40.394;-80.022;2024-03-08T13:03:11;9;8;
74333;PMS5003;62753;40.394;-80.022;2024-03-08T13:05:37;10;9;
74333;PMS5003;62753;40.394;-80.022;2024-03-08T13:08:02;9;8;
74333;PMS5003;62753;40.394;-80.022;2024-03-08T13:10:27;7;7;
74333;PMS5003;62753;40.394;-80.022;2024-03-08T13:12:53;9;8;
74333;PMS5003;62753;40.394;-80.022;2024-03-08T13:15:18;7;7;
74333;PMS5003;62753;40.394;-80.022;2024-03-08T13:17:45;8;7;
74333;PMS5003;62753;40.394;-80.022;2024-03-08T13:20:10;7;7;
74333;PMS5003;62753;40.394;-80.022;2024-03-08T13:22:35;10;9;
74333;PMS5003;62753;40.394;-80.022;2024-03-08T13:25:00;7;6;
74333;PMS5003;62753;40.394;-80.022;2024-03-08T13:27:25;9;8;
74333;PMS5003;62753;40.394;-80.022;2024-03-08T13:29:50;9;7;
74333;PMS5003;62753;40.394;-80.022;2024-03-08T13:32:16;8;7;
74333;PMS5003;62753;40.394;-80.022;2024-03-08T13:34:41;8;7;
74333;PMS5003;62753;40.394;-80.022;2024-03-08T13:37:08;8;7;
74333;PMS5003;62753;40.394;-80.022;2024-03-08T13:39:33;8;6;
74333;PMS5003;62753;40.394;-80.022;2024-03-08T13:41:57;5;5;
74333;PMS5003;62753;40.394;-80.022;2024-03-08T13:44:23;7;7;
74333;PMS5003;62753;40.394;-80.022;2024-03-08T13:46:48;7;7;
74333;PMS5003;62753;40.394;-80.022;2024-03-08T13:49:15;9;8;
74333;PMS5003;62753;40.394;-80.022;2024-03-08T13:51:39;7;6;
74333;PMS5003;62753;40.394;-80.022;2024-03-08T13:54:04;6;6;
74333;PMS5003;62753;40.394;-80.022;2024-03-08T13:56:30;8;7;
74333;PMS5003;62753;40.394;-80.022;2024-03-08T13:58:55;6;5;
74333;PMS5003;62753;40.394;-80.022;2024-03-08T14:01:20;4;4;
74333;PMS5003;62753;40.394;-80.022;2024-03-08T14:03:46;8;6;
74333;PMS5003;62753;40.394;-80.022;2024-03-08T14:06:11;5;5;
74333;PMS5003;62753;40.394;-80.022;2024-03-08T14:08:36;3;3;
74333;PMS5003;62753;40.394;-80.022;2024-03-08T14:11:02;5;4;
74333;PMS5003;62753;40.394;-80.022;2024-03-08T14:13:28;5;4;
74333;PMS5003;62753;40.394;-80.022;2024-03-08T14:15:52;5;4;
74333;PMS5003;62753;40.394;-80.022;2024-03-08T14:18:18;3;2;
74333;PMS5003;62753;40.394;-80.022;2024-03-08T14:20:43;4;4;
74333;PMS5003;62753;40.394;-80.022;2024-03-08T14:23:08;3;3;
74333;PMS5003;62753;40.394;-80.022;2024-03-08T14:25:34;4;4;
74333;PMS5003;62753;40.394;-80.022;2024-03-08T14:27:59;3;3;
74333;PMS5003;62753;40.394;-80.022;2024-03-08T14:30:24;4;3;
74333;PMS5003;62753;40.394;-80.022;2024-03-08T14:32:49;3;3;
74333;PMS5003;62753;40.394;-80.022;2024-03-08T14:35:15;6;4;
74333;PMS5003;62753;40.394;-80.022;2024-03-08T14:37:40;4;3;
74333;PMS5003;62753;40.394;-80.022;2024-03-08T14:40:06;2;1;
74333;PMS5003;62753;40.394;-80.022;2024-03-08T14:42:32;3;3;
74333;PMS5003;62753;40.394;-80.022;2024-03-08T14:44:56;3;3;
74333;PMS5003;62753;40.394;-80.022;2024-03-08T14:47:21;5;5;
74333;PMS5003;62753;40.394;-80.022;2024-03-08T14:49:46;5;3;
74333;PMS5003;62753;40.394;-80.022;2024-03-08T14:52:12;4;4;
74333;PMS5003;62753;40.394;-80.022;2024-03-08T14:54:37;4;4;
74333;PMS5003;62753;40.394;-80.022;2024-03-08T14:57:02;4;4;
74333;PMS5003;62753;40.394;-80.022;2024-03-08T14:59:28;4;3;
74333;PMS5003;62753;40.394;-80.022;2024-03-08T15:01:53;5;3;
74333;PMS5003;62753;40.394;-80.022;2024-03-08T15:04:18;4;4;
74333;PMS5003;62753;40.394;-80.022;2024-03-08T15:06:44;3;2;
74333;PMS5003;62753;40.394;-80.022;2024-03-08T15:09:09;2;2;
74333;PMS5003;62753;40.394;-80.022;2024-03-08T15:11:36;2;2;
74333;PMS5003;62753;40.394;-80.022;2024-03-08T15:14:00;1;1;
74333;PMS5003;62753;40.394;-80.022;2024-03-08T15:16:25;1;1;
74333;PMS5003;62753;40.394;-80.022;2024-03-08T15:18:50;1;1;
74333;PMS5003;62753;40.394;-80.022;2024-03-08T15:21:16;2;0;
74333;PMS5003;62753;40.394;-80.022;2024-03-08T15:23:41;3;3;
74333;PMS5003;62753;40.394;-80.022;2024-03-08T15:26:06;1;1;
74333;PMS5003;62753;40.394;-80.022;2024-03-08T15:28:31;1;1;
74333;PMS5003;62753;40.394;-80.022;2024-03-08T15:30:57;2;2;
74333;PMS5003;62753;40.394;-80.022;2024-03-08T15:33:22;2;2;
74333;PMS5003;62753;40.394;-80.022;2024-03-08T15:35:47;2;2;
74333;PMS5003;62753;40.394;-80.022;2024-03-08T15:38:13;2;2;
74333;PMS5003;62753;40.394;-80.022;2024-03-08T15:40:38;2;2;
74333;PMS5003;62753;40.394;-80.022;2024-03-08T15:43:04;3;2;
74333;PMS5003;62753;40.394;-80.022;2024-03-08T15:45:28;2;2;
74333;PMS5003;62753;40.394;-80.022;2024-03-08T15:47:54;2;2;
74333;PMS5003;62753;40.394;-80.022;2024-03-08T15:50:19;2;2;
74333;PMS5003;62753;40.394;-80.022;2024-03-08T15:52:44;2;2;
74333;PMS5003;62753;40.394;-80.022;2024-03-08T15:55:11;0;0;